sensor_id;sensor_type;location;lat;lon;timestamp;pressure;altitude;pressure_sealevel;temperature;humidity
49645;BME280;36494;50.730;-1.932;2023-07-16T00:01:12;100094.56;;;15.33;100.00
49645;BME280;36494;50.730;-1.932;2023-07-16T00:03:38;100091.55;;;15.28;100.00
49645;BME280;36494;50.730;-1.932;2023-07-16T00:06:03;100092.30;;;15.29;100.00
49645;BME280;36494;50.730;-1.932;2023-07-16T00:08:28;100095.95;;;15.25;100.00
49645;BME280;36494;50.730;-1.932;2023-07-16T00:10:54;100096.42;;;15.29;100.00
49645;BME280;36494;50.730;-1.932;2023-07-16T00:13:20;100099.03;;;15.30;100.00
49645;BME280;36494;50.730;-1.932;2023-07-16T00:15:45;100102.22;;;15.31;100.00
49645;BME280;36494;50.730;-1.932;2023-07-16T00:18:10;100108.86;;;15.26;100.00
49645;BME280;36494;50.730;-1.932;2023-07-16T00:20:36;100106.58;;;15.29;100.00
49645;BME280;36494;50.730;-1.932;2023-07-16T00:23:01;100104.66;;;15.23;100.00
49645;BME280;36494;50.730;-1.932;2023-07-16T00:25:27;100102.73;;;15.25;100.00
49645;BME280;36494;50.730;-1.932;2023-07-16T00:27:53;100107.85;;;15.24;100.00
49645;BME280;36494;50.730;-1.932;2023-07-16T00:30:18;100108.90;;;15.24;100.00
49645;BME280;36494;50.730;-1.932;2023-07-16T00:32:44;100108.13;;;15.21;100.00
49645;BME280;36494;50.730;-1.932;2023-07-16T00:35:09;100109.80;;;15.27;100.00
49645;BME280;36494;50.730;-1.932;2023-07-16T00:37:34;100112.85;;;15.18;100.00
49645;BME280;36494;50.730;-1.932;2023-07-16T00:39:59;100116.85;;;15.16;100.00
49645;BME280;36494;50.730;-1.932;2023-07-16T00:42:24;100117.18;;;15.23;100.00
49645;BME280;36494;50.730;-1.932;2023-07-16T00:44:49;100122.21;;;15.15;100.00
49645;BME280;36494;50.730;-1.932;2023-07-16T00:47:15;100120.70;;;15.13;100.00
49645;BME280;36494;50.730;-1.932;2023-07-16T00:49:40;100115.68;;;15.10;100.00
49645;BME280;36494;50.730;-1.932;2023-07-16T00:52:05;100122.07;;;15.08;100.00
49645;BME280;36494;50.730;-1.932;2023-07-16T00:54:31;100119.16;;;15.13;100.00
49645;BME280;36494;50.730;-1.932;2023-07-16T00:56:55;100126.52;;;15.12;100.00
49645;BME280;36494;50.730;-1.932;2023-07-16T00:59:21;100122.91;;;15.00;100.00
49645;BME280;36494;50.730;-1.932;2023-07-16T01:01:46;100126.69;;;15.04;100.00
49645;BME280;36494;50.730;-1.932;2023-07-16T01:04:11;100133.26;;;15.06;100.00
49645;BME280;36494;50.730;-1.932;2023-07-16T01:06:40;100138.10;;;15.13;100.00
49645;BME280;36494;50.730;-1.932;2023-07-16T01:09:13;100141.88;;;15.01;100.00
49645;BME280;36494;50.730;-1.932;2023-07-16T01:11:28;100141.52;;;15.09;100.00
49645;BME280;36494;50.730;-1.932;2023-07-16T01:13:54;100135.96;;;15.02;100.00
49645;BME280;36494;50.730;-1.932;2023-07-16T01:16:20;100138.23;;;15.05;100.00
49645;BME280;36494;50.730;-1.932;2023-07-16T01:18:45;100136.15;;;15.06;100.00
49645;BME280;36494;50.730;-1.932;2023-07-16T01:21:10;100144.37;;;14.88;100.00
49645;BME280;36494;50.730;-1.932;2023-07-16T01:23:44;100147.64;;;14.91;100.00
49645;BME280;36494;50.730;-1.932;2023-07-16T01:26:08;100145.12;;;15.01;100.00
49645;BME280;36494;50.730;-1.932;2023-07-16T01:28:39;100144.32;;;15.03;100.00
49645;BME280;36494;50.730;-1.932;2023-07-16T01:30:52;100146.38;;;15.02;100.00
49645;BME280;36494;50.730;-1.932;2023-07-16T01:33:17;100146.06;;;14.98;100.00
49645;BME280;36494;50.730;-1.932;2023-07-16T01:35:43;100146.04;;;15.03;100.00
49645;BME280;36494;50.730;-1.932;2023-07-16T01:38:09;100152.65;;;14.96;100.00
49645;BME280;36494;50.730;-1.932;2023-07-16T01:40:34;100156.52;;;15.01;100.00
49645;BME280;36494;50.730;-1.932;2023-07-16T01:42:58;100157.32;;;14.93;100.00
49645;BME280;36494;50.730;-1.932;2023-07-16T01:45:23;100160.45;;;14.95;100.00
49645;BME280;36494;50.730;-1.932;2023-07-16T01:47:54;100157.12;;;14.91;100.00
49645;BME280;36494;50.730;-1.932;2023-07-16T01:50:15;100155.72;;;14.89;100.00
49645;BME280;36494;50.730;-1.932;2023-07-16T01:52:40;100165.91;;;14.83;100.00
49645;BME280;36494;50.730;-1.932;2023-07-16T01:55:06;100165.97;;;14.87;100.00
49645;BME280;36494;50.730;-1.932;2023-07-16T01:57:30;100162.43;;;14.80;100.00
49645;BME280;36494;50.730;-1.932;2023-07-16T01:59:56;100168.20;;;14.84;100.00
49645;BME280;36494;50.730;-1.932;2023-07-16T02:02:21;100166.28;;;14.78;100.00
49645;BME280;36494;50.730;-1.932;2023-07-16T02:04:46;100175.11;;;14.75;100.00
49645;BME280;36494;50.730;-1.932;2023-07-16T02:07:12;100185.33;;;14.81;100.00
49645;BME280;36494;50.730;-1.932;2023-07-16T02:09:37;100189.22;;;14.79;100.00
49645;BME280;36494;50.730;-1.932;2023-07-16T02:12:03;100186.81;;;14.83;100.00
49645;BME280;36494;50.730;-1.932;2023-07-16T02:14:28;100191.50;;;14.78;100.00
49645;BME280;36494;50.730;-1.932;2023-07-16T02:16:54;100196.00;;;14.77;100.00
49645;BME280;36494;50.730;-1.932;2023-07-16T02:19:19;100198.97;;;14.76;100.00
49645;BME280;36494;50.730;-1.932;2023-07-16T02:21:45;100197.36;;;14.75;100.00
49645;BME280;36494;50.730;-1.932;2023-07-16T02:24:10;100198.23;;;14.77;100.00
49645;BME280;36494;50.730;-1.932;2023-07-16T02:26:36;100201.40;;;14.77;100.00
49645;BME280;36494;50.730;-1.932;2023-07-16T02:29:02;100200.64;;;14.73;100.00
49645;BME280;36494;50.730;-1.932;2023-07-16T02:31:27;100198.09;;;14.75;100.00
49645;BME280;36494;50.730;-1.932;2023-07-16T02:33:53;100197.00;;;14.70;100.00
49645;BME280;36494;50.730;-1.932;2023-07-16T02:36:19;100193.63;;;14.72;100.00
49645;BME280;36494;50.730;-1.932;2023-07-16T02:38:44;100193.84;;;14.75;100.00
49645;BME280;36494;50.730;-1.932;2023-07-16T02:41:10;100197.15;;;14.64;100.00
49645;BME280;36494;50.730;-1.932;2023-07-16T02:43:36;100195.22;;;14.67;100.00
49645;BME280;36494;50.730;-1.932;2023-07-16T02:46:01;100194.32;;;14.66;100.00
49645;BME280;36494;50.730;-1.932;2023-07-16T02:48:27;100194.78;;;14.64;100.00
49645;BME280;36494;50.730;-1.932;2023-07-16T02:50:52;100195.69;;;14.64;100.00
49645;BME280;36494;50.730;-1.932;2023-07-16T02:53:17;100197.02;;;14.58;100.00
49645;BME280;36494;50.730;-1.932;2023-07-16T02:55:45;100197.82;;;14.56;100.00
49645;BME280;36494;50.730;-1.932;2023-07-16T02:58:07;100198.44;;;14.47;100.00
49645;BME280;36494;50.730;-1.932;2023-07-16T03:00:33;100201.64;;;14.49;100.00
49645;BME280;36494;50.730;-1.932;2023-07-16T03:02:58;100202.69;;;14.52;100.00
49645;BME280;36494;50.730;-1.932;2023-07-16T03:05:23;100203.78;;;14.44;100.00
49645;BME280;36494;50.730;-1.932;2023-07-16T03:07:49;100208.77;;;14.48;100.00
49645;BME280;36494;50.730;-1.932;2023-07-16T03:10:14;100214.90;;;14.53;100.00
49645;BME280;36494;50.730;-1.932;2023-07-16T03:12:40;100217.85;;;14.49;100.00
49645;BME280;36494;50.730;-1.932;2023-07-16T03:15:07;100220.21;;;14.41;100.00
49645;BME280;36494;50.730;-1.932;2023-07-16T03:17:31;100220.95;;;14.46;100.00
49645;BME280;36494;50.730;-1.932;2023-07-16T03:19:56;100220.40;;;14.40;100.00
49645;BME280;36494;50.730;-1.932;2023-07-16T03:22:22;100222.99;;;14.44;100.00
49645;BME280;36494;50.730;-1.932;2023-07-16T03:24:48;100227.77;;;14.41;100.00
49645;BME280;36494;50.730;-1.932;2023-07-16T03:27:13;100231.36;;;14.44;100.00
49645;BME280;36494;50.730;-1.932;2023-07-16T03:29:38;100233.58;;;14.47;100.00
49645;BME280;36494;50.730;-1.932;2023-07-16T03:32:04;100235.37;;;14.44;100.00
49645;BME280;36494;50.730;-1.932;2023-07-16T03:34:29;100240.46;;;14.49;100.00
49645;BME280;36494;50.730;-1.932;2023-07-16T03:36:54;100238.65;;;14.46;100.00
49645;BME280;36494;50.730;-1.932;2023-07-16T03:39:19;100247.31;;;14.48;100.00
49645;BME280;36494;50.730;-1.932;2023-07-16T03:41:44;100252.60;;;14.46;100.00
49645;BME280;36494;50.730;-1.932;2023-07-16T03:44:10;100253.19;;;14.48;100.00
49645;BME280;36494;50.730;-1.932;2023-07-16T03:46:35;100255.02;;;14.48;100.00
49645;BME280;36494;50.730;-1.932;2023-07-16T03:49:01;100258.54;;;14.43;100.00
49645;BME280;36494;50.730;-1.932;2023-07-16T03:51:26;100263.11;;;14.49;100.00
49645;BME280;36494;50.730;-1.932;2023-07-16T03:53:51;100260.42;;;14.40;100.00
49645;BME280;36494;50.730;-1.932;2023-07-16T03:56:16;100267.69;;;14.43;100.00
49645;BME280;36494;50.730;-1.932;2023-07-16T03:58:42;100272.08;;;14.41;100.00
49645;BME280;36494;50.730;-1.932;2023-07-16T04:01:08;100271.07;;;14.41;100.00
49645;BME280;36494;50.730;-1.932;2023-07-16T04:03:33;100268.64;;;14.43;100.00
49645;BME280;36494;50.730;-1.932;2023-07-16T04:06:03;100268.76;;;14.46;100.00
49645;BME280;36494;50.730;-1.932;2023-07-16T04:08:24;100271.94;;;14.44;100.00
49645;BME280;36494;50.730;-1.932;2023-07-16T04:10:49;100273.27;;;14.43;100.00
49645;BME280;36494;50.730;-1.932;2023-07-16T04:13:15;100270.44;;;14.43;100.00
49645;BME280;36494;50.730;-1.932;2023-07-16T04:15:40;100275.56;;;14.43;100.00
49645;BME280;36494;50.730;-1.932;2023-07-16T04:18:05;100278.99;;;14.37;100.00
49645;BME280;36494;50.730;-1.932;2023-07-16T04:20:31;100278.73;;;14.36;100.00
49645;BME280;36494;50.730;-1.932;2023-07-16T04:22:56;100283.81;;;14.34;100.00
49645;BME280;36494;50.730;-1.932;2023-07-16T04:25:21;100286.29;;;14.43;100.00
49645;BME280;36494;50.730;-1.932;2023-07-16T04:27:47;100289.39;;;14.37;100.00
49645;BME280;36494;50.730;-1.932;2023-07-16T04:30:12;100297.26;;;14.40;100.00
49645;BME280;36494;50.730;-1.932;2023-07-16T04:32:37;100298.38;;;14.41;100.00
49645;BME280;36494;50.730;-1.932;2023-07-16T04:35:02;100306.17;;;14.44;100.00
49645;BME280;36494;50.730;-1.932;2023-07-16T04:37:27;100309.42;;;14.40;100.00
49645;BME280;36494;50.730;-1.932;2023-07-16T04:39:53;100314.25;;;14.43;100.00
49645;BME280;36494;50.730;-1.932;2023-07-16T04:42:19;100320.51;;;14.40;100.00
49645;BME280;36494;50.730;-1.932;2023-07-16T04:44:44;100319.28;;;14.35;100.00
49645;BME280;36494;50.730;-1.932;2023-07-16T04:47:10;100316.69;;;14.41;100.00
49645;BME280;36494;50.730;-1.932;2023-07-16T04:49:35;100315.73;;;14.42;100.00
49645;BME280;36494;50.730;-1.932;2023-07-16T04:52:01;100319.05;;;14.40;100.00
49645;BME280;36494;50.730;-1.932;2023-07-16T04:54:26;100317.09;;;14.43;100.00
49645;BME280;36494;50.730;-1.932;2023-07-16T04:56:51;100320.34;;;14.46;100.00
49645;BME280;36494;50.730;-1.932;2023-07-16T04:59:17;100320.90;;;14.50;100.00
49645;BME280;36494;50.730;-1.932;2023-07-16T05:01:43;100328.22;;;14.48;100.00
49645;BME280;36494;50.730;-1.932;2023-07-16T05:04:09;100328.30;;;14.53;100.00
49645;BME280;36494;50.730;-1.932;2023-07-16T05:06:34;100329.40;;;14.49;100.00
49645;BME280;36494;50.730;-1.932;2023-07-16T05:09:00;100330.01;;;14.56;100.00
49645;BME280;36494;50.730;-1.932;2023-07-16T05:11:25;100333.03;;;14.49;100.00
49645;BME280;36494;50.730;-1.932;2023-07-16T05:13:51;100335.54;;;14.58;100.00
49645;BME280;36494;50.730;-1.932;2023-07-16T05:16:16;100344.65;;;14.61;100.00
49645;BME280;36494;50.730;-1.932;2023-07-16T05:18:41;100342.36;;;14.61;100.00
49645;BME280;36494;50.730;-1.932;2023-07-16T05:21:07;100340.13;;;14.63;100.00
49645;BME280;36494;50.730;-1.932;2023-07-16T05:23:32;100347.87;;;14.67;100.00
49645;BME280;36494;50.730;-1.932;2023-07-16T05:25:58;100352.48;;;14.73;100.00
49645;BME280;36494;50.730;-1.932;2023-07-16T05:28:24;100355.92;;;14.78;100.00
49645;BME280;36494;50.730;-1.932;2023-07-16T05:30:58;100351.68;;;14.81;100.00
49645;BME280;36494;50.730;-1.932;2023-07-16T05:33:13;100355.57;;;14.77;100.00
49645;BME280;36494;50.730;-1.932;2023-07-16T05:35:39;100353.27;;;14.84;100.00
49645;BME280;36494;50.730;-1.932;2023-07-16T05:38:04;100352.02;;;14.89;100.00
49645;BME280;36494;50.730;-1.932;2023-07-16T05:40:29;100358.71;;;14.88;100.00
49645;BME280;36494;50.730;-1.932;2023-07-16T05:42:54;100357.53;;;14.84;100.00
49645;BME280;36494;50.730;-1.932;2023-07-16T05:45:20;100359.36;;;14.86;100.00
49645;BME280;36494;50.730;-1.932;2023-07-16T05:47:46;100364.00;;;14.85;100.00
49645;BME280;36494;50.730;-1.932;2023-07-16T05:50:11;100371.64;;;14.85;100.00
49645;BME280;36494;50.730;-1.932;2023-07-16T05:52:37;100374.66;;;14.89;100.00
49645;BME280;36494;50.730;-1.932;2023-07-16T05:55:03;100380.49;;;14.88;100.00
49645;BME280;36494;50.730;-1.932;2023-07-16T05:57:28;100383.57;;;14.90;100.00
49645;BME280;36494;50.730;-1.932;2023-07-16T05:59:54;100386.56;;;14.97;100.00
49645;BME280;36494;50.730;-1.932;2023-07-16T06:02:20;100396.90;;;15.01;100.00
49645;BME280;36494;50.730;-1.932;2023-07-16T06:04:45;100400.33;;;14.98;100.00
49645;BME280;36494;50.730;-1.932;2023-07-16T06:07:12;100399.11;;;14.98;100.00
49645;BME280;36494;50.730;-1.932;2023-07-16T06:09:36;100402.58;;;15.03;100.00
49645;BME280;36494;50.730;-1.932;2023-07-16T06:12:03;100408.37;;;15.06;100.00
49645;BME280;36494;50.730;-1.932;2023-07-16T06:14:28;100412.17;;;15.04;100.00
49645;BME280;36494;50.730;-1.932;2023-07-16T06:16:53;100412.88;;;15.14;100.00
49645;BME280;36494;50.730;-1.932;2023-07-16T06:19:19;100416.54;;;15.07;100.00
49645;BME280;36494;50.730;-1.932;2023-07-16T06:21:44;100421.79;;;15.10;100.00
49645;BME280;36494;50.730;-1.932;2023-07-16T06:24:09;100427.51;;;15.15;100.00
49645;BME280;36494;50.730;-1.932;2023-07-16T06:26:35;100428.16;;;15.16;100.00
49645;BME280;36494;50.730;-1.932;2023-07-16T06:29:00;100415.97;;;15.21;100.00
49645;BME280;36494;50.730;-1.932;2023-07-16T06:31:25;100419.14;;;15.30;100.00
49645;BME280;36494;50.730;-1.932;2023-07-16T06:33:50;100419.26;;;15.29;100.00
49645;BME280;36494;50.730;-1.932;2023-07-16T06:36:16;100422.64;;;15.30;100.00
49645;BME280;36494;50.730;-1.932;2023-07-16T06:38:42;100421.99;;;15.38;100.00
49645;BME280;36494;50.730;-1.932;2023-07-16T06:41:07;100422.56;;;15.38;100.00
49645;BME280;36494;50.730;-1.932;2023-07-16T06:43:33;100425.34;;;15.40;100.00
49645;BME280;36494;50.730;-1.932;2023-07-16T06:45:58;100431.31;;;15.44;100.00
49645;BME280;36494;50.730;-1.932;2023-07-16T06:48:24;100438.29;;;15.46;100.00
49645;BME280;36494;50.730;-1.932;2023-07-16T06:50:50;100450.54;;;15.56;100.00
49645;BME280;36494;50.730;-1.932;2023-07-16T06:53:14;100458.57;;;15.57;100.00
49645;BME280;36494;50.730;-1.932;2023-07-16T06:55:40;100458.24;;;15.62;100.00
49645;BME280;36494;50.730;-1.932;2023-07-16T06:58:09;100459.70;;;15.67;100.00
49645;BME280;36494;50.730;-1.932;2023-07-16T07:00:31;100467.98;;;15.73;100.00
49645;BME280;36494;50.730;-1.932;2023-07-16T07:02:56;100471.34;;;15.65;100.00
49645;BME280;36494;50.730;-1.932;2023-07-16T07:05:21;100475.72;;;15.60;100.00
49645;BME280;36494;50.730;-1.932;2023-07-16T07:07:47;100480.21;;;15.64;100.00
49645;BME280;36494;50.730;-1.932;2023-07-16T07:10:12;100479.40;;;15.59;100.00
49645;BME280;36494;50.730;-1.932;2023-07-16T07:12:37;100478.82;;;15.62;100.00
49645;BME280;36494;50.730;-1.932;2023-07-16T07:15:04;100478.60;;;15.75;100.00
49645;BME280;36494;50.730;-1.932;2023-07-16T07:17:28;100484.00;;;15.79;100.00
49645;BME280;36494;50.730;-1.932;2023-07-16T07:19:53;100477.86;;;15.81;100.00
49645;BME280;36494;50.730;-1.932;2023-07-16T07:22:18;100480.22;;;15.86;100.00
49645;BME280;36494;50.730;-1.932;2023-07-16T07:24:44;100476.22;;;15.81;100.00
49645;BME280;36494;50.730;-1.932;2023-07-16T07:27:09;100481.00;;;15.93;100.00
49645;BME280;36494;50.730;-1.932;2023-07-16T07:29:35;100490.19;;;16.06;100.00
49645;BME280;36494;50.730;-1.932;2023-07-16T07:32:00;100489.41;;;16.17;100.00
49645;BME280;36494;50.730;-1.932;2023-07-16T07:34:26;100502.47;;;16.11;100.00
49645;BME280;36494;50.730;-1.932;2023-07-16T07:36:51;100503.75;;;16.11;100.00
49645;BME280;36494;50.730;-1.932;2023-07-16T07:39:17;100509.88;;;16.16;100.00
49645;BME280;36494;50.730;-1.932;2023-07-16T07:41:43;100508.44;;;16.19;100.00
49645;BME280;36494;50.730;-1.932;2023-07-16T07:44:08;100512.58;;;16.25;100.00
49645;BME280;36494;50.730;-1.932;2023-07-16T07:46:33;100512.76;;;16.27;100.00
49645;BME280;36494;50.730;-1.932;2023-07-16T07:48:58;100514.92;;;16.30;100.00
49645;BME280;36494;50.730;-1.932;2023-07-16T07:51:24;100516.67;;;16.36;100.00
49645;BME280;36494;50.730;-1.932;2023-07-16T07:53:49;100513.45;;;16.22;100.00
49645;BME280;36494;50.730;-1.932;2023-07-16T07:56:15;100513.51;;;16.25;100.00
49645;BME280;36494;50.730;-1.932;2023-07-16T07:58:40;100515.63;;;16.37;100.00
49645;BME280;36494;50.730;-1.932;2023-07-16T08:01:07;100526.01;;;16.49;100.00
49645;BME280;36494;50.730;-1.932;2023-07-16T08:03:31;100531.82;;;16.59;100.00
49645;BME280;36494;50.730;-1.932;2023-07-16T08:05:56;100530.61;;;16.61;100.00
49645;BME280;36494;50.730;-1.932;2023-07-16T08:08:22;100536.26;;;16.63;100.00
49645;BME280;36494;50.730;-1.932;2023-07-16T08:10:47;100541.68;;;16.45;100.00
49645;BME280;36494;50.730;-1.932;2023-07-16T08:13:12;100538.20;;;16.54;100.00
49645;BME280;36494;50.730;-1.932;2023-07-16T08:15:37;100545.53;;;16.58;100.00
49645;BME280;36494;50.730;-1.932;2023-07-16T08:18:03;100541.17;;;16.53;100.00
49645;BME280;36494;50.730;-1.932;2023-07-16T08:20:28;100547.75;;;16.65;100.00
49645;BME280;36494;50.730;-1.932;2023-07-16T08:22:54;100544.70;;;16.65;100.00
49645;BME280;36494;50.730;-1.932;2023-07-16T08:25:20;100543.51;;;16.85;100.00
49645;BME280;36494;50.730;-1.932;2023-07-16T08:27:45;100545.46;;;16.91;100.00
49645;BME280;36494;50.730;-1.932;2023-07-16T08:30:11;100543.93;;;16.99;100.00
49645;BME280;36494;50.730;-1.932;2023-07-16T08:32:36;100552.25;;;16.99;100.00
49645;BME280;36494;50.730;-1.932;2023-07-16T08:35:01;100553.47;;;16.84;100.00
49645;BME280;36494;50.730;-1.932;2023-07-16T08:37:26;100558.04;;;16.75;100.00
49645;BME280;36494;50.730;-1.932;2023-07-16T08:39:52;100564.69;;;16.82;100.00
49645;BME280;36494;50.730;-1.932;2023-07-16T08:42:17;100566.01;;;16.92;100.00
49645;BME280;36494;50.730;-1.932;2023-07-16T08:44:42;100564.19;;;16.95;100.00
49645;BME280;36494;50.730;-1.932;2023-07-16T08:47:07;100563.37;;;16.97;100.00
49645;BME280;36494;50.730;-1.932;2023-07-16T08:49:34;100560.29;;;17.05;100.00
49645;BME280;36494;50.730;-1.932;2023-07-16T08:51:59;100557.18;;;16.99;100.00
49645;BME280;36494;50.730;-1.932;2023-07-16T08:54:23;100559.74;;;17.09;100.00
49645;BME280;36494;50.730;-1.932;2023-07-16T08:56:50;100560.58;;;17.18;100.00
49645;BME280;36494;50.730;-1.932;2023-07-16T08:59:15;100567.84;;;17.17;100.00
49645;BME280;36494;50.730;-1.932;2023-07-16T09:01:39;100570.42;;;17.25;100.00
49645;BME280;36494;50.730;-1.932;2023-07-16T09:04:05;100563.37;;;17.33;100.00
49645;BME280;36494;50.730;-1.932;2023-07-16T09:06:31;100566.63;;;17.20;100.00
49645;BME280;36494;50.730;-1.932;2023-07-16T09:08:56;100568.97;;;17.21;100.00
49645;BME280;36494;50.730;-1.932;2023-07-16T09:11:22;100566.10;;;17.36;100.00
49645;BME280;36494;50.730;-1.932;2023-07-16T09:13:47;100568.79;;;17.44;100.00
49645;BME280;36494;50.730;-1.932;2023-07-16T09:16:12;100570.98;;;17.60;100.00
49645;BME280;36494;50.730;-1.932;2023-07-16T09:18:39;100575.64;;;17.62;100.00
49645;BME280;36494;50.730;-1.932;2023-07-16T09:21:03;100578.87;;;17.66;100.00
49645;BME280;36494;50.730;-1.932;2023-07-16T09:23:30;100576.80;;;17.59;100.00
49645;BME280;36494;50.730;-1.932;2023-07-16T09:25:55;100579.69;;;17.54;100.00
49645;BME280;36494;50.730;-1.932;2023-07-16T09:28:20;100583.36;;;17.43;100.00
49645;BME280;36494;50.730;-1.932;2023-07-16T09:30:45;100589.60;;;17.43;100.00
49645;BME280;36494;50.730;-1.932;2023-07-16T09:33:12;100590.42;;;17.35;100.00
49645;BME280;36494;50.730;-1.932;2023-07-16T09:35:36;100594.21;;;17.44;100.00
49645;BME280;36494;50.730;-1.932;2023-07-16T09:38:02;100596.46;;;17.42;100.00
49645;BME280;36494;50.730;-1.932;2023-07-16T09:40:26;100597.85;;;17.37;100.00
49645;BME280;36494;50.730;-1.932;2023-07-16T09:42:52;100603.18;;;17.43;100.00
49645;BME280;36494;50.730;-1.932;2023-07-16T09:45:18;100597.99;;;17.57;100.00
49645;BME280;36494;50.730;-1.932;2023-07-16T09:47:42;100601.03;;;17.64;100.00
49645;BME280;36494;50.730;-1.932;2023-07-16T09:50:09;100595.35;;;17.67;100.00
49645;BME280;36494;50.730;-1.932;2023-07-16T09:52:33;100597.80;;;17.62;100.00
49645;BME280;36494;50.730;-1.932;2023-07-16T09:55:01;100603.33;;;17.81;100.00
49645;BME280;36494;50.730;-1.932;2023-07-16T09:57:26;100597.30;;;17.86;100.00
49645;BME280;36494;50.730;-1.932;2023-07-16T09:59:50;100602.13;;;18.06;100.00
49645;BME280;36494;50.730;-1.932;2023-07-16T10:02:15;100597.95;;;18.05;100.00
49645;BME280;36494;50.730;-1.932;2023-07-16T10:04:40;100597.91;;;18.32;100.00
49645;BME280;36494;50.730;-1.932;2023-07-16T10:07:06;100598.69;;;18.40;100.00
49645;BME280;36494;50.730;-1.932;2023-07-16T10:09:32;100604.79;;;18.55;100.00
49645;BME280;36494;50.730;-1.932;2023-07-16T10:14:25;100612.32;;;18.58;100.00
49645;BME280;36494;50.730;-1.932;2023-07-16T10:16:47;100614.09;;;18.60;100.00
49645;BME280;36494;50.730;-1.932;2023-07-16T10:19:12;100624.62;;;18.65;100.00
49645;BME280;36494;50.730;-1.932;2023-07-16T10:21:38;100623.38;;;18.70;100.00
49645;BME280;36494;50.730;-1.932;2023-07-16T10:24:03;100624.33;;;18.55;100.00
49645;BME280;36494;50.730;-1.932;2023-07-16T10:26:29;100626.59;;;18.74;100.00
49645;BME280;36494;50.730;-1.932;2023-07-16T10:28:53;100631.66;;;18.97;100.00
49645;BME280;36494;50.730;-1.932;2023-07-16T10:31:20;100631.11;;;19.02;100.00
49645;BME280;36494;50.730;-1.932;2023-07-16T10:33:44;100632.50;;;18.77;100.00
49645;BME280;36494;50.730;-1.932;2023-07-16T10:36:09;100638.74;;;18.86;100.00
49645;BME280;36494;50.730;-1.932;2023-07-16T10:38:40;100632.16;;;18.64;100.00
49645;BME280;36494;50.730;-1.932;2023-07-16T10:41:01;100639.72;;;18.75;100.00
49645;BME280;36494;50.730;-1.932;2023-07-16T10:43:25;100646.75;;;18.77;100.00
49645;BME280;36494;50.730;-1.932;2023-07-16T10:45:51;100649.06;;;18.88;100.00
49645;BME280;36494;50.730;-1.932;2023-07-16T10:48:17;100656.30;;;18.76;100.00
49645;BME280;36494;50.730;-1.932;2023-07-16T10:50:43;100647.63;;;18.95;100.00
49645;BME280;36494;50.730;-1.932;2023-07-16T10:53:08;100650.51;;;18.68;100.00
49645;BME280;36494;50.730;-1.932;2023-07-16T10:55:33;100657.89;;;18.90;100.00
49645;BME280;36494;50.730;-1.932;2023-07-16T10:57:58;100664.24;;;19.09;100.00
49645;BME280;36494;50.730;-1.932;2023-07-16T11:00:24;100661.23;;;19.20;100.00
49645;BME280;36494;50.730;-1.932;2023-07-16T11:02:51;100661.49;;;19.49;100.00
49645;BME280;36494;50.730;-1.932;2023-07-16T11:05:16;100665.56;;;19.59;100.00
49645;BME280;36494;50.730;-1.932;2023-07-16T11:07:43;100667.13;;;19.46;100.00
49645;BME280;36494;50.730;-1.932;2023-07-16T11:10:07;100670.23;;;19.73;100.00
49645;BME280;36494;50.730;-1.932;2023-07-16T11:12:31;100671.12;;;19.77;100.00
49645;BME280;36494;50.730;-1.932;2023-07-16T11:14:57;100668.42;;;19.68;100.00
49645;BME280;36494;50.730;-1.932;2023-07-16T11:17:24;100671.24;;;19.34;100.00
49645;BME280;36494;50.730;-1.932;2023-07-16T11:19:48;100668.00;;;19.46;100.00
49645;BME280;36494;50.730;-1.932;2023-07-16T11:22:14;100670.50;;;19.46;100.00
49645;BME280;36494;50.730;-1.932;2023-07-16T11:24:40;100667.68;;;19.55;100.00
49645;BME280;36494;50.730;-1.932;2023-07-16T11:27:03;100673.62;;;19.42;100.00
49645;BME280;36494;50.730;-1.932;2023-07-16T11:29:35;100673.95;;;19.55;100.00
49645;BME280;36494;50.730;-1.932;2023-07-16T11:31:54;100679.71;;;19.30;100.00
49645;BME280;36494;50.730;-1.932;2023-07-16T11:34:20;100672.89;;;19.31;100.00
49645;BME280;36494;50.730;-1.932;2023-07-16T11:36:45;100681.18;;;19.38;100.00
49645;BME280;36494;50.730;-1.932;2023-07-16T11:39:11;100672.87;;;19.25;100.00
49645;BME280;36494;50.730;-1.932;2023-07-16T11:41:37;100676.29;;;18.90;100.00
49645;BME280;36494;50.730;-1.932;2023-07-16T11:44:01;100671.24;;;19.23;100.00
49645;BME280;36494;50.730;-1.932;2023-07-16T11:46:31;100662.67;;;19.57;100.00
49645;BME280;36494;50.730;-1.932;2023-07-16T11:48:52;100662.87;;;19.62;100.00
49645;BME280;36494;50.730;-1.932;2023-07-16T11:51:17;100665.85;;;19.76;100.00
49645;BME280;36494;50.730;-1.932;2023-07-16T11:53:42;100670.32;;;19.81;100.00
49645;BME280;36494;50.730;-1.932;2023-07-16T11:56:08;100669.51;;;19.47;100.00
49645;BME280;36494;50.730;-1.932;2023-07-16T11:58:33;100676.64;;;19.41;100.00
49645;BME280;36494;50.730;-1.932;2023-07-16T12:00:59;100685.32;;;19.31;100.00
49645;BME280;36494;50.730;-1.932;2023-07-16T12:03:24;100687.00;;;19.29;100.00
49645;BME280;36494;50.730;-1.932;2023-07-16T12:05:49;100690.26;;;19.56;100.00
49645;BME280;36494;50.730;-1.932;2023-07-16T12:08:14;100686.98;;;19.62;100.00
49645;BME280;36494;50.730;-1.932;2023-07-16T12:10:40;100695.01;;;19.64;100.00
49645;BME280;36494;50.730;-1.932;2023-07-16T12:13:05;100688.52;;;19.54;100.00
49645;BME280;36494;50.730;-1.932;2023-07-16T12:15:30;100693.33;;;19.57;100.00
49645;BME280;36494;50.730;-1.932;2023-07-16T12:17:55;100691.15;;;19.49;100.00
49645;BME280;36494;50.730;-1.932;2023-07-16T12:20:20;100694.43;;;19.45;100.00
49645;BME280;36494;50.730;-1.932;2023-07-16T12:22:46;100697.22;;;19.50;100.00